Dennis, MA (02638)

4:13 AM EDT on July 31, 2016 (GMT -0400)
7/10ths ml from Bayview beach | | Change Station

Elev 23 ft 41.74 °N, 70.21 °W | Updated 1 second ago

Overcast
Overcast
70.7 °F
Feels Like 70.7 °F
N
0.4
Wind Variable Wind from West
Gusts 2.5 mph

Today
High -- | Low -- °F
--% Chance of Precip.
Yesterday
High -- | Low -- °F
Precip. -- in
Pressure 30.04 in
Visibility 10.0 miles
Clouds Overcast 800 ft
Dew Point 70 °F
Humidity 96%
Rainfall 0.00 in
Snow Depth Not available.
5:34 AM 7:59 PM
Waning Crescent, 8% visible
METAR KHYA 310756Z AUTO 00000KT 10SM OVC008 22/20 A3004 RMK AO2 SLP173 T02220200
Pressure 30.04 in
Visibility 10.0 miles
Clouds Overcast 800 ft
Dew Point 70 °F
Humidity 96%
Rainfall 0.00 in
Snow Depth Not available.
5:34 AM 7:59 PM
Waning Crescent, 8% visible
METAR KHYA 310756Z AUTO 00000KT 10SM OVC008 22/20 A3004 RMK AO2 SLP173 T02220200

10-Day Weather Forecast

Almanac

Astronomy

Jul. 31, 2016 Rise Set
Actual Time
Civil Twilight
Nautical Twilight
Astronomical Twilight
Moon
Length of Visible Light
Length of Day
Tomorrow will be .
, % of the Moon is Illuminated

Today's Extremes

State Highs State Lows

Community

WunderPhotos

Upload Photos

1,928,768 photos uploaded!

WunderBlog® & News

Nearby

Air Quality

  Air Quality AQ Index Pollutant
Not available.

Snow Depth

Station Depth Elevation

Earthquake Activity

City Distance Mag. Time & Date
Minimum magnitude displayed is 2.5.

Coastal Water Temperatures

Place Temperature

Stations

Nearby Weather Stations

Station Location Temp. Windchill Dew Point Humidity Wind Precip. Elev Updated Type
                   

Watches & Warnings

There are currently no watches in effect.